createdAt,value
2019-05-29T00:00:18.986Z,101087.09
2019-05-29T00:01:54.216Z,101087.09
2019-05-29T00:03:28.956Z,101093.18
2019-05-29T00:05:04.457Z,101095.56
2019-05-29T00:06:39.163Z,101095.56
2019-05-29T00:08:14.759Z,101102.81
2019-05-29T00:09:50.731Z,101103.05
2019-05-29T00:11:25.963Z,101103.05
2019-05-29T00:13:02.240Z,101112.08
2019-05-29T00:14:37.488Z,101110.17
2019-05-29T00:16:12.475Z,101102.19
2019-05-29T00:17:47.835Z,101110.42
2019-05-29T00:19:22.505Z,101113.47
2019-05-29T00:20:57.729Z,101106.45
2019-05-29T00:22:32.391Z,101100.73
2019-05-29T00:24:08.696Z,101110.37
2019-05-29T00:25:43.419Z,101110.37
2019-05-29T00:27:18.664Z,101113.59
2019-05-29T00:28:53.307Z,101113.12
2019-05-29T00:30:28.536Z,101103.09
2019-05-29T00:32:03.389Z,101103.09
2019-05-29T00:33:38.930Z,101115.70
2019-05-29T00:35:14.308Z,101122.94
2019-05-29T00:36:49.793Z,101126.62
2019-05-29T00:38:24.517Z,101127.72
2019-05-29T00:39:59.769Z,101127.72
2019-05-29T00:41:37.494Z,101125.97
2019-05-29T00:43:13.771Z,101125.97
2019-05-29T00:44:48.496Z,101131.37
2019-05-29T00:46:23.740Z,101131.37
2019-05-29T00:47:58.438Z,101126.22
2019-05-29T00:49:33.758Z,101134.73
2019-05-29T00:51:08.892Z,101134.73
2019-05-29T00:52:44.369Z,101135.22
2019-05-29T00:54:19.106Z,101135.22
2019-05-29T00:55:54.338Z,101133.61
2019-05-29T00:57:29.014Z,101146.67
2019-05-29T00:59:04.244Z,101153.38
2019-05-29T01:00:38.970Z,101153.38
2019-05-29T01:02:15.733Z,101144.02
2019-05-29T01:03:51.064Z,101142.05
2019-05-29T01:05:26.321Z,101155.39
2019-05-29T01:07:00.964Z,101159.99
2019-05-29T01:08:36.172Z,101158.70
2019-05-29T01:10:13.141Z,101158.70
2019-05-29T01:11:48.426Z,101163.18
2019-05-29T01:13:23.075Z,101165.47
2019-05-29T01:14:58.306Z,101169.23
2019-05-29T01:16:32.947Z,101169.23
2019-05-29T01:18:08.201Z,101175.98
2019-05-29T01:19:42.843Z,101175.38
2019-05-29T01:21:18.160Z,101169.28
2019-05-29T01:22:52.818Z,101178.61
2019-05-29T01:24:28.178Z,101181.11
2019-05-29T01:26:02.810Z,101181.11
2019-05-29T01:27:38.036Z,101173.59
2019-05-29T01:29:12.983Z,101187.94
2019-05-29T01:30:51.413Z,101182.79
2019-05-29T01:32:24.679Z,101194.80
2019-05-29T01:33:59.888Z,101194.80
2019-05-29T01:35:34.517Z,101196.37
2019-05-29T01:37:10.433Z,101200.25
2019-05-29T01:38:45.077Z,101197.09
2019-05-29T01:40:25.126Z,101197.09
2019-05-29T01:41:56.740Z,101201.83
2019-05-29T01:43:31.975Z,101201.14
2019-05-29T01:45:08.458Z,101205.16
2019-05-29T01:46:43.932Z,101201.19
2019-05-29T01:48:19.552Z,101207.60
2019-05-29T01:49:54.973Z,101207.60
2019-05-29T01:51:29.599Z,101207.25
2019-05-29T01:53:04.808Z,101211.44
2019-05-29T01:54:39.499Z,101214.83
2019-05-29T01:56:15.547Z,101212.78
2019-05-29T01:57:50.255Z,101214.91
2019-05-29T01:59:25.503Z,101218.02
2019-05-29T02:01:00.144Z,101220.37
2019-05-29T02:02:35.398Z,101217.34
2019-05-29T02:04:10.037Z,101221.56
2019-05-29T02:05:45.266Z,101222.48
2019-05-29T02:07:20.053Z,101221.89
2019-05-29T02:08:55.220Z,101223.43
2019-05-29T02:10:29.878Z,101229.29
2019-05-29T02:12:05.166Z,101226.09
2019-05-29T02:13:39.780Z,101225.52
2019-05-29T02:15:26.008Z,101228.30
2019-05-29T02:16:51.906Z,101231.59
2019-05-29T02:18:27.126Z,101229.95
2019-05-29T02:20:01.868Z,101231.79
2019-05-29T02:21:37.069Z,101238.95
2019-05-29T02:23:11.706Z,101243.23
2019-05-29T02:24:46.932Z,101237.61
2019-05-29T02:26:22.422Z,101244.33
2019-05-29T02:27:57.859Z,101242.63
2019-05-29T02:29:32.519Z,101240.23
2019-05-29T02:31:07.758Z,101240.41
2019-05-29T02:32:42.370Z,101241.36
2019-05-29T02:34:17.688Z,101242.23
2019-05-29T02:35:52.342Z,101244.97
2019-05-29T02:37:28.883Z,101248.63
2019-05-29T02:39:05.664Z,101250.36
2019-05-29T02:40:41.002Z,101250.71
2019-05-29T02:42:15.644Z,101254.98
2019-05-29T02:43:50.860Z,101251.58
2019-05-29T02:45:49.298Z,101256.31
2019-05-29T02:47:02.439Z,101256.71
2019-05-29T02:48:37.150Z,101256.83
2019-05-29T02:50:12.450Z,101257.02
2019-05-29T02:51:47.109Z,101261.56
2019-05-29T02:53:22.403Z,101257.20
2019-05-29T02:54:57.042Z,101273.11
2019-05-29T02:56:32.427Z,101271.33
2019-05-29T02:58:07.058Z,101267.39
2019-05-29T02:59:42.281Z,101273.80
2019-05-29T03:01:17.001Z,101278.88
2019-05-29T03:02:52.234Z,101276.45
2019-05-29T03:04:28.184Z,101277.77
2019-05-29T03:06:04.334Z,101280.56
2019-05-29T03:07:39.346Z,101284.41
2019-05-29T03:09:14.656Z,101286.48
2019-05-29T03:10:49.483Z,101290.55
2019-05-29T03:12:25.077Z,101291.13
2019-05-29T03:13:59.821Z,101293.30
2019-05-29T03:15:35.109Z,101296.62
2019-05-29T03:17:09.761Z,101301.06
2019-05-29T03:18:45.954Z,101299.84
2019-05-29T03:20:20.598Z,101305.73
2019-05-29T03:21:55.829Z,101305.34
2019-05-29T03:23:30.974Z,101302.23
2019-05-29T03:25:07.876Z,101305.23
2019-05-29T03:26:43.625Z,101307.47
2019-05-29T03:28:18.850Z,101310.44
2019-05-29T03:29:53.483Z,101314.26
2019-05-29T03:31:36.846Z,101321.32
2019-05-29T03:33:05.130Z,101323.80
2019-05-29T03:34:46.329Z,101325.92
2019-05-29T03:36:17.022Z,101327.51
2019-05-29T03:37:52.191Z,101330.09
2019-05-29T03:39:28.045Z,101333.30
2019-05-29T03:41:03.363Z,101333.98
2019-05-29T03:42:39.023Z,101334.69
2019-05-29T03:44:14.482Z,101342.03
2019-05-29T03:45:49.216Z,101340.08
2019-05-29T03:47:24.446Z,101347.86
2019-05-29T03:48:59.088Z,101349.41
2019-05-29T03:50:34.884Z,101348.58
2019-05-29T03:52:09.822Z,101346.86
2019-05-29T03:53:45.157Z,101347.19
2019-05-29T03:55:19.799Z,101350.33
2019-05-29T03:56:55.039Z,101353.59
2019-05-29T03:58:30.985Z,101355.02
2019-05-29T04:00:08.114Z,101353.41
2019-05-29T04:01:42.748Z,101353.79
2019-05-29T04:03:18.057Z,101358.55
2019-05-29T04:04:52.796Z,101360.84
2019-05-29T04:06:29.065Z,101356.05
2019-05-29T04:08:03.948Z,101366.80
2019-05-29T04:09:39.179Z,101369.52
2019-05-29T04:11:13.859Z,101376.67
2019-05-29T04:12:49.078Z,101368.63
2019-05-29T04:14:23.701Z,101377.20
2019-05-29T04:16:02.318Z,101376.63
2019-05-29T04:17:38.035Z,101376.91
2019-05-29T04:19:13.681Z,101379.86
2019-05-29T04:20:49.627Z,101378.15
2019-05-29T04:22:30.208Z,101382.80
2019-05-29T04:24:06.919Z,101384.77
2019-05-29T04:25:43.462Z,101389.45
2019-05-29T04:27:19.012Z,101385.11
2019-05-29T04:28:54.708Z,101393.67
2019-05-29T04:30:30.002Z,101396.54
2019-05-29T04:32:06.589Z,101395.58
2019-05-29T04:33:41.239Z,101401.78
2019-05-29T04:35:17.495Z,101405.82
2019-05-29T04:36:52.153Z,101411.15
2019-05-29T04:38:28.655Z,101409.19
2019-05-29T04:40:04.551Z,101406.23
2019-05-29T04:41:39.775Z,101416.02
2019-05-29T04:43:14.415Z,101414.67
2019-05-29T04:44:49.667Z,101420.98
2019-05-29T04:46:24.315Z,101415.34
2019-05-29T04:47:59.582Z,101418.10
2019-05-29T04:49:39.782Z,101419.97
2019-05-29T04:51:14.887Z,101421.16
2019-05-29T04:52:50.375Z,101423.44
2019-05-29T04:54:25.649Z,101439.66
2019-05-29T04:56:00.300Z,101439.66
2019-05-29T04:57:35.536Z,101446.02
2019-05-29T04:59:10.207Z,101455.82
2019-05-29T05:00:58.699Z,101455.82
2019-05-29T05:02:21.839Z,101458.82
2019-05-29T05:03:57.063Z,101465.11
2019-05-29T05:05:31.729Z,101460.03
2019-05-29T05:07:06.952Z,101465.88
2019-05-29T05:08:41.600Z,101456.12
2019-05-29T05:10:33.395Z,101463.88
2019-05-29T05:12:09.549Z,101463.26
2019-05-29T05:13:44.285Z,101469.81
2019-05-29T05:15:19.618Z,101467.66
2019-05-29T05:16:55.101Z,101464.61
2019-05-29T05:18:30.336Z,101465.81
2019-05-29T05:20:05.759Z,101466.14
2019-05-29T05:21:40.990Z,101466.48
2019-05-29T05:23:15.689Z,101467.31
2019-05-29T05:24:50.914Z,101471.05
2019-05-29T05:26:25.537Z,101474.53
2019-05-29T05:28:00.846Z,101473.09
2019-05-29T05:29:36.538Z,101479.36
2019-05-29T05:31:11.853Z,101472.94
2019-05-29T05:32:46.487Z,101475.86
2019-05-29T05:34:21.724Z,101487.91
2019-05-29T05:35:57.449Z,101483.63
2019-05-29T05:37:32.738Z,101486.32
2019-05-29T05:39:07.875Z,101486.10
2019-05-29T05:40:43.393Z,101490.08
2019-05-29T05:42:18.188Z,101500.72
2019-05-29T05:43:53.401Z,101493.59
2019-05-29T05:45:28.156Z,101498.94
2019-05-29T05:47:03.424Z,101502.13
2019-05-29T05:48:39.178Z,101495.30
2019-05-29T05:50:14.865Z,101505.38
2019-05-29T05:51:49.508Z,101509.91
2019-05-29T05:53:24.798Z,101510.09
2019-05-29T05:54:59.387Z,101506.69
2019-05-29T05:56:35.635Z,101520.80
2019-05-29T05:58:10.438Z,101520.93
2019-05-29T05:59:45.718Z,101525.00
2019-05-29T06:01:20.392Z,101521.36
2019-05-29T06:02:55.611Z,101526.44
2019-05-29T06:04:30.646Z,101529.78
2019-05-29T06:06:06.991Z,101526.30
2019-05-29T06:07:42.477Z,101539.66
2019-05-29T06:09:17.950Z,101542.16
2019-05-29T06:10:52.572Z,101543.92
2019-05-29T06:12:27.802Z,101540.78
2019-05-29T06:14:02.482Z,101541.75
2019-05-29T06:15:38.468Z,101544.16
2019-05-29T06:17:13.150Z,101549.95
2019-05-29T06:18:48.347Z,101543.39
2019-05-29T06:20:23.002Z,101545.28
2019-05-29T06:21:58.213Z,101543.56
2019-05-29T06:23:32.871Z,101545.74
2019-05-29T06:25:08.639Z,101544.41
2019-05-29T06:26:43.343Z,101543.08
2019-05-29T06:28:19.186Z,101544.56
2019-05-29T06:29:55.163Z,101552.76
2019-05-29T06:31:33.401Z,101545.37
2019-05-29T06:33:09.519Z,101546.53
2019-05-29T06:34:44.925Z,101555.09
2019-05-29T06:36:19.552Z,101558.45
2019-05-29T06:37:54.765Z,101556.95
2019-05-29T06:39:29.421Z,101544.25
2019-05-29T06:41:25.594Z,101553.73
2019-05-29T06:43:00.903Z,101561.06
2019-05-29T06:44:36.622Z,101556.79
2019-05-29T06:46:13.592Z,101561.09
2019-05-29T06:47:48.223Z,101552.68
2019-05-29T06:49:23.427Z,101552.67
2019-05-29T06:50:58.398Z,101553.84
2019-05-29T06:52:33.604Z,101548.52
2019-05-29T06:54:08.667Z,101549.65
2019-05-29T06:55:44.092Z,101555.86
2019-05-29T06:57:19.813Z,101552.05
2019-05-29T06:58:55.048Z,101553.88
2019-05-29T07:00:35.263Z,101552.23
2019-05-29T07:02:06.873Z,101559.93
2019-05-29T07:03:41.848Z,101560.62
2019-05-29T07:05:17.126Z,101578.08
2019-05-29T07:06:51.764Z,101585.64
2019-05-29T07:08:39.008Z,101570.33
2019-05-29T07:10:06.622Z,101565.64
2019-05-29T07:11:41.887Z,101567.55
2019-05-29T07:13:17.465Z,101577.45
2019-05-29T07:14:52.698Z,101584.37
2019-05-29T07:16:43.199Z,101576.39
2019-05-29T07:18:04.589Z,101573.22
2019-05-29T07:19:54.158Z,101570.20
2019-05-29T07:21:16.144Z,101565.75
2019-05-29T07:22:50.796Z,101577.55
2019-05-29T07:24:26.012Z,101589.59
2019-05-29T07:26:00.733Z,101590.45
2019-05-29T07:27:36.840Z,101600.45
2019-05-29T07:29:11.924Z,101593.71
2019-05-29T07:30:53.817Z,101580.44
2019-05-29T07:32:23.661Z,101597.91
2019-05-29T07:33:58.870Z,101600.46
2019-05-29T07:35:33.502Z,101605.15
2019-05-29T07:37:08.729Z,101594.12
2019-05-29T07:38:48.902Z,101621.48
2019-05-29T07:40:20.338Z,101609.11
2019-05-29T07:41:55.078Z,101612.05
2019-05-29T07:43:30.287Z,101616.80
2019-05-29T07:45:05.457Z,101607.66
2019-05-29T07:46:42.284Z,101604.35
2019-05-29T07:48:17.332Z,101612.71
2019-05-29T07:49:52.576Z,101614.34
2019-05-29T07:51:27.265Z,101628.02
2019-05-29T07:53:02.542Z,101617.09
2019-05-29T07:54:37.271Z,101619.08
2019-05-29T07:56:22.197Z,101616.91
2019-05-29T07:57:49.084Z,101628.59
2019-05-29T07:59:28.560Z,101621.50
2019-05-29T08:01:12.789Z,101608.92
2019-05-29T08:02:39.397Z,101615.25
2019-05-29T08:04:14.158Z,101614.60
2019-05-29T08:05:52.736Z,101628.09
2019-05-29T08:07:25.834Z,101617.12
2019-05-29T08:09:01.120Z,101616.91
2019-05-29T08:10:37.219Z,101622.21
2019-05-29T08:12:12.540Z,101627.77
2019-05-29T08:13:48.256Z,101620.78
2019-05-29T08:15:23.488Z,101618.16
2019-05-29T08:16:58.259Z,101623.05
2019-05-29T08:18:33.492Z,101626.22
2019-05-29T08:20:08.510Z,101628.27
2019-05-29T08:21:44.292Z,101633.06
2019-05-29T08:23:18.993Z,101634.42
2019-05-29T08:24:54.530Z,101628.11
2019-05-29T08:26:29.282Z,101625.84
2019-05-29T08:28:04.590Z,101640.69
2019-05-29T08:29:40.521Z,101625.41
2019-05-29T08:31:15.844Z,101632.52
2019-05-29T08:32:51.285Z,101633.44
2019-05-29T08:34:26.630Z,101633.30
2019-05-29T08:36:01.310Z,101638.15
2019-05-29T08:37:36.565Z,101640.16
2019-05-29T08:39:11.258Z,101636.05
2019-05-29T08:40:47.394Z,101645.15
2019-05-29T08:42:23.745Z,101651.56
2019-05-29T08:43:59.228Z,101638.62
2019-05-29T08:45:33.994Z,101649.88
2019-05-29T08:47:10.904Z,101647.39
2019-05-29T08:48:45.937Z,101640.23
2019-05-29T08:50:21.267Z,101644.63
2019-05-29T08:52:10.539Z,101646.41
2019-05-29T08:53:32.822Z,101638.45
2019-05-29T08:55:07.848Z,101653.08
2019-05-29T08:56:44.282Z,101647.70
2019-05-29T08:58:19.097Z,101648.41
2019-05-29T08:59:54.384Z,101649.27
2019-05-29T09:01:29.071Z,101651.87
2019-05-29T09:03:04.377Z,101651.80
2019-05-29T09:04:39.021Z,101649.16
2019-05-29T09:06:14.377Z,101652.95
2019-05-29T09:07:50.023Z,101652.21
2019-05-29T09:09:25.991Z,101648.80
2019-05-29T09:11:00.623Z,101655.62
2019-05-29T09:12:36.012Z,101654.86
2019-05-29T09:14:10.659Z,101659.97
2019-05-29T09:15:45.936Z,101651.72
2019-05-29T09:17:20.589Z,101659.61
2019-05-29T09:18:55.877Z,101658.48
2019-05-29T09:20:50.210Z,101657.15
2019-05-29T09:22:08.422Z,101658.05
2019-05-29T09:23:43.072Z,101666.84
2019-05-29T09:25:19.549Z,101659.28
2019-05-29T09:26:54.190Z,101660.98
2019-05-29T09:28:28.132Z,101654.83
2019-05-29T09:30:02.881Z,101652.36
2019-05-29T09:31:38.585Z,101658.17
2019-05-29T09:33:15.229Z,101661.70
2019-05-29T09:34:50.454Z,101660.08
2019-05-29T09:36:25.201Z,101659.70
2019-05-29T09:38:00.592Z,101663.53
2019-05-29T09:39:36.295Z,101668.49
2019-05-29T09:41:11.593Z,101661.14
2019-05-29T09:42:46.358Z,101661.95
2019-05-29T09:44:36.041Z,101664.89
2019-05-29T09:46:01.896Z,101669.12
2019-05-29T09:47:34.942Z,101677.28
2019-05-29T09:49:09.591Z,101672.45
2019-05-29T09:50:49.906Z,101673.28
2019-05-29T09:52:21.208Z,101678.00
2019-05-29T09:53:58.215Z,101678.45
2019-05-29T09:55:32.795Z,101672.97
2019-05-29T09:57:07.995Z,101675.64
2019-05-29T09:58:50.779Z,101673.99
2019-05-29T10:00:26.616Z,101672.29
2019-05-29T10:02:06.962Z,101675.22
2019-05-29T10:03:38.205Z,101680.34
2019-05-29T10:05:13.324Z,101677.01
2019-05-29T10:06:48.911Z,101680.56
2019-05-29T10:08:23.564Z,101681.07
2019-05-29T10:10:00.536Z,101684.06
2019-05-29T10:11:36.625Z,101688.77
2019-05-29T10:13:11.923Z,101687.59
2019-05-29T10:14:46.619Z,101682.55
2019-05-29T10:16:22.883Z,101683.56
2019-05-29T10:17:58.529Z,101682.66
2019-05-29T10:19:33.836Z,101687.12
2019-05-29T10:21:08.530Z,101687.98
2019-05-29T10:22:43.742Z,101680.52
2019-05-29T10:24:18.381Z,101684.53
2019-05-29T10:25:53.623Z,101685.33
2019-05-29T10:27:28.287Z,101687.20
2019-05-29T10:29:08.697Z,101684.63
2019-05-29T10:30:39.956Z,101687.59
2019-05-29T10:32:15.286Z,101682.72
2019-05-29T10:33:50.297Z,101684.44
2019-05-29T10:35:25.579Z,101681.78
2019-05-29T10:37:01.394Z,101684.27
2019-05-29T10:38:36.635Z,101680.92
2019-05-29T10:40:11.540Z,101684.38
2019-05-29T10:41:46.807Z,101683.34
2019-05-29T10:43:33.721Z,101677.22
2019-05-29T10:44:58.440Z,101685.30
2019-05-29T10:46:33.090Z,101689.42
2019-05-29T10:48:08.496Z,101687.94
2019-05-29T10:49:48.272Z,101683.68
2019-05-29T10:51:23.534Z,101688.55
2019-05-29T10:52:58.204Z,101687.36
2019-05-29T10:54:33.415Z,101687.22
2019-05-29T10:56:08.120Z,101687.47
2019-05-29T10:57:44.633Z,101691.66
2019-05-29T10:59:19.483Z,101690.83
2019-05-29T11:00:55.590Z,101685.44
2019-05-29T11:02:30.348Z,101692.86
2019-05-29T11:04:05.694Z,101690.30
2019-05-29T11:05:40.332Z,101691.56
2019-05-29T11:07:15.529Z,101683.75
2019-05-29T11:08:50.249Z,101686.70
2019-05-29T11:10:25.516Z,101684.12
2019-05-29T11:12:00.187Z,101689.47
2019-05-29T11:13:35.492Z,101689.19
2019-05-29T11:15:20.664Z,101694.41
2019-05-29T11:16:47.321Z,101692.31
2019-05-29T11:18:22.039Z,101687.10
2019-05-29T11:19:58.250Z,101689.62
2019-05-29T11:21:33.093Z,101694.69
2019-05-29T11:23:08.471Z,101691.98
2019-05-29T11:24:43.399Z,101691.40
2019-05-29T11:26:18.624Z,101690.90
2019-05-29T11:27:54.831Z,101695.46
2019-05-29T11:29:30.209Z,101696.16
2019-05-29T11:31:06.533Z,101696.20
2019-05-29T11:32:41.990Z,101694.03
2019-05-29T11:34:16.642Z,101699.52
2019-05-29T11:36:03.312Z,101689.70
2019-05-29T11:37:28.293Z,101696.93
2019-05-29T11:39:06.272Z,101695.13
2019-05-29T11:40:41.423Z,101698.74
2019-05-29T11:42:26.862Z,101696.46
2019-05-29T11:43:54.521Z,101694.70
2019-05-29T11:45:30.644Z,101693.38
2019-05-29T11:47:05.663Z,101698.77
2019-05-29T11:48:40.901Z,101692.77
2019-05-29T11:50:19.515Z,101694.81
2019-05-29T11:51:53.819Z,101692.97
2019-05-29T11:53:29.249Z,101691.27
2019-05-29T11:55:08.083Z,101690.25
2019-05-29T11:56:41.083Z,101691.71
2019-05-29T11:58:30.664Z,101695.63
2019-05-29T11:59:53.832Z,101686.72
2019-05-29T12:01:29.184Z,101684.48
2019-05-29T12:03:04.167Z,101685.32
2019-05-29T12:04:39.495Z,101686.59
2019-05-29T12:06:14.383Z,101684.47
2019-05-29T12:07:51.229Z,101686.16
2019-05-29T12:09:32.684Z,101684.01
2019-05-29T12:11:03.160Z,101677.25
2019-05-29T12:12:37.956Z,101674.08
2019-05-29T12:14:13.298Z,101672.27
2019-05-29T12:15:47.963Z,101680.52
2019-05-29T12:17:23.192Z,101681.10
2019-05-29T12:18:57.900Z,101684.11
2019-05-29T12:20:33.146Z,101685.39
2019-05-29T12:22:07.964Z,101676.30
2019-05-29T12:23:43.203Z,101682.52
2019-05-29T12:25:18.253Z,101678.34
2019-05-29T12:26:54.486Z,101678.82
2019-05-29T12:28:29.513Z,101677.39
2019-05-29T12:30:05.772Z,101674.02
2019-05-29T12:31:40.409Z,101676.45
2019-05-29T12:33:15.626Z,101669.42
2019-05-29T12:34:53.456Z,101676.63
2019-05-29T12:36:27.281Z,101675.61
2019-05-29T12:38:01.925Z,101675.00
2019-05-29T12:39:38.332Z,101671.58
2019-05-29T12:41:13.111Z,101672.97
2019-05-29T12:42:48.501Z,101669.85
2019-05-29T12:44:23.182Z,101670.62
2019-05-29T12:46:00.093Z,101670.01
2019-05-29T12:47:35.725Z,101667.55
2019-05-29T12:49:10.970Z,101665.59
2019-05-29T12:50:45.716Z,101668.21
2019-05-29T12:52:21.015Z,101669.02
2019-05-29T12:53:55.914Z,101672.28
2019-05-29T12:55:31.207Z,101672.59
2019-05-29T12:57:05.942Z,101667.94
2019-05-29T12:58:41.199Z,101667.89
2019-05-29T13:00:16.418Z,101667.80
2019-05-29T13:01:51.687Z,101668.66
2019-05-29T13:03:26.355Z,101667.92
2019-05-29T13:05:08.410Z,101671.14
2019-05-29T13:06:37.995Z,101670.41
2019-05-29T13:08:13.260Z,101665.80
2019-05-29T13:09:47.923Z,101668.86
2019-05-29T13:11:23.136Z,101670.17
2019-05-29T13:13:06.972Z,101665.64
2019-05-29T13:14:37.598Z,101664.07
2019-05-29T13:16:12.642Z,101666.30
2019-05-29T13:17:47.882Z,101665.75
2019-05-29T13:19:22.546Z,101659.84
2019-05-29T13:21:00.978Z,101663.48
2019-05-29T13:22:35.788Z,101665.60
2019-05-29T13:24:11.785Z,101670.95
2019-05-29T13:25:46.541Z,101668.89
2019-05-29T13:27:21.796Z,101666.44
2019-05-29T13:28:57.545Z,101669.98
2019-05-29T13:30:32.897Z,101664.91
2019-05-29T13:32:07.748Z,101665.31
2019-05-29T13:33:42.955Z,101657.68
2019-05-29T13:35:21.979Z,101659.08
2019-05-29T13:36:59.865Z,101661.25
2019-05-29T13:38:31.351Z,101665.34
2019-05-29T13:40:08.400Z,101660.63
2019-05-29T13:41:43.301Z,101664.14
2019-05-29T13:43:18.527Z,101660.42
2019-05-29T13:44:53.877Z,101654.55
2019-05-29T13:46:29.297Z,101658.57
2019-05-29T13:48:05.460Z,101657.62
2019-05-29T13:49:40.797Z,101658.91
2019-05-29T13:51:17.628Z,101654.95
2019-05-29T13:53:08.071Z,101652.66
2019-05-29T13:54:42.627Z,101657.83
2019-05-29T13:56:17.861Z,101660.42
2019-05-29T13:57:52.515Z,101654.48
2019-05-29T13:59:27.721Z,101658.48
2019-05-29T14:01:02.564Z,101664.70
2019-05-29T14:02:37.952Z,101658.60
2019-05-29T14:04:12.606Z,101656.38
2019-05-29T14:05:47.850Z,101658.20
2019-05-29T14:07:22.499Z,101659.59
2019-05-29T14:08:59.032Z,101656.82
2019-05-29T14:10:33.914Z,101656.63
2019-05-29T14:12:09.550Z,101658.97
2019-05-29T14:13:44.355Z,101654.13
2019-05-29T14:15:20.700Z,101655.67
2019-05-29T14:16:55.371Z,101655.23
2019-05-29T14:18:30.687Z,101660.80
2019-05-29T14:20:06.809Z,101653.21
2019-05-29T14:21:41.996Z,101656.43
2019-05-29T14:23:16.686Z,101661.12
2019-05-29T14:24:51.887Z,101665.09
2019-05-29T14:26:26.516Z,101665.66
2019-05-29T14:28:02.605Z,101662.08
2019-05-29T14:29:38.371Z,101667.78
2019-05-29T14:31:13.783Z,101663.27
2019-05-29T14:32:48.538Z,101664.17
2019-05-29T14:34:23.846Z,101662.02
2019-05-29T14:35:58.557Z,101654.95
2019-05-29T14:37:33.849Z,101665.52
2019-05-29T14:39:10.004Z,101649.36
2019-05-29T14:40:45.375Z,101651.27
2019-05-29T14:42:20.027Z,101651.25
2019-05-29T14:43:55.292Z,101663.23
2019-05-29T14:45:30.063Z,101661.27
2019-05-29T14:47:05.921Z,101660.52
2019-05-29T14:48:40.625Z,101660.31
2019-05-29T14:50:16.706Z,101654.11
2019-05-29T14:51:51.358Z,101655.62
2019-05-29T14:53:26.627Z,101650.51
2019-05-29T14:55:02.673Z,101651.31
2019-05-29T14:56:38.252Z,101647.93
2019-05-29T14:58:14.041Z,101656.94
2019-05-29T14:59:50.760Z,101654.11
2019-05-29T15:01:25.421Z,101656.42
2019-05-29T15:03:00.660Z,101654.88
2019-05-29T15:04:35.653Z,101657.17
2019-05-29T15:06:11.731Z,101660.21
2019-05-29T15:07:46.519Z,101657.45
2019-05-29T15:09:22.940Z,101660.43
2019-05-29T15:10:57.605Z,101666.69
2019-05-29T15:12:32.833Z,101662.03
2019-05-29T15:14:08.101Z,101668.22
2019-05-29T15:15:43.340Z,101668.06
2019-05-29T15:17:18.018Z,101667.53
2019-05-29T15:18:53.226Z,101665.27
2019-05-29T15:20:27.865Z,101664.55
2019-05-29T15:22:03.174Z,101658.68
2019-05-29T15:23:37.892Z,101659.16
2019-05-29T15:25:21.067Z,101658.48
2019-05-29T15:26:49.538Z,101655.67
2019-05-29T15:28:24.765Z,101661.81
2019-05-29T15:30:01.094Z,101662.88
2019-05-29T15:31:37.434Z,101662.46
2019-05-29T15:33:12.682Z,101668.75
2019-05-29T15:34:48.023Z,101660.17
2019-05-29T15:36:22.746Z,101668.80
2019-05-29T15:37:57.942Z,101666.23
2019-05-29T15:39:32.645Z,101664.70
2019-05-29T15:41:08.690Z,101671.75
2019-05-29T15:42:43.380Z,101669.96
2019-05-29T15:44:18.619Z,101675.21
2019-05-29T15:45:53.276Z,101678.93
2019-05-29T15:47:28.812Z,101675.90
2019-05-29T15:49:04.938Z,101675.86
2019-05-29T15:50:40.093Z,101674.34
2019-05-29T15:52:15.238Z,101672.46
2019-05-29T15:53:50.558Z,101671.73
2019-05-29T15:55:33.615Z,101665.39
2019-05-29T15:57:02.191Z,101673.38
2019-05-29T15:58:36.819Z,101669.67
2019-05-29T16:00:13.910Z,101664.73
2019-05-29T16:01:49.018Z,101668.58
2019-05-29T16:03:24.272Z,101664.63
2019-05-29T16:04:58.953Z,101664.42
2019-05-29T16:06:34.211Z,101664.00
2019-05-29T16:08:09.917Z,101665.07
2019-05-29T16:09:45.219Z,101666.52
2019-05-29T16:11:19.885Z,101667.83
2019-05-29T16:12:56.182Z,101658.91
2019-05-29T16:14:30.840Z,101656.77
2019-05-29T16:16:06.259Z,101658.83
2019-05-29T16:17:40.988Z,101660.85
2019-05-29T16:19:16.334Z,101654.55
2019-05-29T16:20:51.050Z,101652.24
2019-05-29T16:22:26.272Z,101651.15
2019-05-29T16:24:00.996Z,101657.81
2019-05-29T16:25:40.518Z,101659.22
2019-05-29T16:27:13.974Z,101657.45
2019-05-29T16:28:49.418Z,101652.77
2019-05-29T16:30:24.202Z,101656.56
2019-05-29T16:31:59.523Z,101652.57
2019-05-29T16:33:34.267Z,101652.95
2019-05-29T16:35:10.943Z,101649.42
2019-05-29T16:36:45.758Z,101650.36
2019-05-29T16:38:21.880Z,101657.91
2019-05-29T16:39:57.006Z,101653.48
2019-05-29T16:41:32.235Z,101655.09
2019-05-29T16:43:06.982Z,101654.81
2019-05-29T16:44:42.210Z,101652.52
2019-05-29T16:46:20.170Z,101647.63
2019-05-29T16:47:53.822Z,101645.19
2019-05-29T16:49:28.495Z,101649.22
2019-05-29T16:51:03.723Z,101659.58
2019-05-29T16:52:38.402Z,101649.28
2019-05-29T16:54:14.922Z,101653.75
2019-05-29T16:55:54.625Z,101660.22
2019-05-29T16:57:30.025Z,101654.70
2019-05-29T16:59:04.725Z,101663.05
2019-05-29T17:00:40.049Z,101652.86
2019-05-29T17:02:15.642Z,101659.20
2019-05-29T17:03:51.047Z,101662.16
2019-05-29T17:05:25.820Z,101656.98
2019-05-29T17:07:01.059Z,101663.42
2019-05-29T17:08:35.769Z,101659.92
2019-05-29T17:10:11.342Z,101661.73
2019-05-29T17:11:46.057Z,101662.91
2019-05-29T17:13:24.802Z,101661.61
2019-05-29T17:14:59.767Z,101663.77
2019-05-29T17:16:35.022Z,101662.34
2019-05-29T17:18:09.742Z,101665.75
2019-05-29T17:19:44.954Z,101668.44
2019-05-29T17:21:20.740Z,101669.98
2019-05-29T17:22:56.074Z,101664.03
2019-05-29T17:24:30.762Z,101656.58
2019-05-29T17:26:10.526Z,101658.70
2019-05-29T17:27:42.407Z,101663.24
2019-05-29T17:29:18.853Z,101661.89
2019-05-29T17:30:53.796Z,101667.21
2019-05-29T17:32:29.241Z,101673.81
2019-05-29T17:34:03.950Z,101668.77
2019-05-29T17:35:39.276Z,101666.73
2019-05-29T17:37:15.147Z,101667.09
2019-05-29T17:38:50.632Z,101668.23
2019-05-29T17:40:25.585Z,101665.80
2019-05-29T17:42:00.926Z,101666.06
2019-05-29T17:43:35.555Z,101665.24
2019-05-29T17:45:13.562Z,101671.14
2019-05-29T17:46:49.008Z,101671.10
2019-05-29T17:48:24.322Z,101668.13
2019-05-29T17:49:58.963Z,101669.70
2019-05-29T17:51:34.216Z,101668.41
2019-05-29T17:53:08.850Z,101665.39
2019-05-29T17:54:44.083Z,101676.26
2019-05-29T17:56:29.702Z,101669.70
2019-05-29T17:57:55.798Z,101671.60
2019-05-29T17:59:30.450Z,101672.19
2019-05-29T18:01:06.844Z,101671.84
2019-05-29T18:02:51.522Z,101671.00
2019-05-29T18:04:18.599Z,101679.34
2019-05-29T18:05:53.304Z,101680.23
2019-05-29T18:07:28.617Z,101673.17
2019-05-29T18:09:04.240Z,101671.55